Time;durP1;ratioP1;P1;durP2;ratioP2;P2;SDS_P1;SDS_P2;PMS_P1;PMS_P2;Temp;Humidity;BMP_temperature;BMP_pressure;BME280_temperature;BME280_humidity;BME280_pressure;Samples;Min_cycle;Max_cycle;Signal;HPM_P1;HPM_P2
2021/05/20 00:00:19;;;;;;;0.55;0.52;;;;;;;9.30;66.65;96804.53;5085614;28;20040;-76
2021/05/20 00:02:45;;;;;;;0.40;0.40;;;;;;;9.30;66.60;96807.16;5083763;28;20032;-77
2021/05/20 00:05:12;;;;;;;0.63;0.50;;;;;;;9.29;66.47;96810.75;5087527;28;20067;-78
2021/05/20 00:07:39;;;;;;;0.75;0.50;;;;;;;9.28;66.71;96824.03;5090705;28;20043;-78
2021/05/20 00:10:07;;;;;;;1.27;0.47;;;;;;;9.24;66.74;96813.19;5083827;28;20044;-77
2021/05/20 00:12:34;;;;;;;0.63;0.63;;;;;;;9.20;66.83;96824.22;5086769;28;20031;-77
2021/05/20 00:15:00;;;;;;;1.10;0.50;;;;;;;9.15;67.01;96827.44;5086999;28;20469;-77
2021/05/20 00:17:27;;;;;;;0.30;0.30;;;;;;;9.10;66.99;96827.25;5088342;28;20040;-77
2021/05/20 00:19:53;;;;;;;1.58;0.40;;;;;;;9.07;67.20;96828.44;5091084;28;20047;-77
2021/05/20 00:22:19;;;;;;;0.75;0.60;;;;;;;9.02;67.29;96825.59;5089140;28;20393;-77
2021/05/20 00:24:45;;;;;;;0.40;0.30;;;;;;;9.00;67.29;96830.22;5084271;28;20468;-77
2021/05/20 00:27:12;;;;;;;0.52;0.50;;;;;;;8.94;67.49;96821.38;5081251;28;20032;-77
2021/05/20 00:29:38;;;;;;;0.40;0.40;;;;;;;8.92;67.63;96818.16;5085619;28;20504;-77
2021/05/20 00:32:04;;;;;;;0.40;0.40;;;;;;;8.92;68.01;96809.47;5089090;28;20052;-77
2021/05/20 00:34:31;;;;;;;0.98;0.65;;;;;;;8.85;67.79;96806.84;5086384;28;20048;-77
2021/05/20 00:36:57;;;;;;;0.43;0.43;;;;;;;8.80;67.91;96818.91;5080389;28;20444;-77
2021/05/20 00:39:23;;;;;;;0.68;0.60;;;;;;;8.79;68.33;96820.72;5089863;28;20043;-77
2021/05/20 00:41:50;;;;;;;0.40;0.40;;;;;;;8.79;68.30;96822.53;5073495;28;20032;-77
2021/05/20 00:44:16;;;;;;;0.45;0.45;;;;;;;8.77;68.21;96814.88;5086320;28;20055;-77
2021/05/20 00:46:42;;;;;;;0.40;0.40;;;;;;;8.77;68.48;96825.34;5086001;28;20040;-77
2021/05/20 00:49:11;;;;;;;0.40;0.40;;;;;;;8.72;68.35;96812.88;5081559;28;20071;-77
2021/05/20 00:51:40;;;;;;;0.47;0.47;;;;;;;8.65;68.44;96816.44;5078700;28;20385;-77
2021/05/20 00:54:08;;;;;;;0.57;0.57;;;;;;;8.61;68.56;96823.06;5085154;28;20366;-77
2021/05/20 00:56:37;;;;;;;0.68;0.52;;;;;;;8.58;68.67;96824.28;5090920;28;20064;-77
2021/05/20 00:59:04;;;;;;;0.88;0.65;;;;;;;8.56;68.71;96822.88;5088023;28;20036;-78
2021/05/20 01:01:32;;;;;;;0.57;0.57;;;;;;;8.50;68.79;96822.66;5083372;28;20039;-77
2021/05/20 01:04:00;;;;;;;0.50;0.50;;;;;;;8.40;68.75;96832.63;5084505;28;20401;-77
2021/05/20 01:06:26;;;;;;;0.50;0.50;;;;;;;8.33;68.87;96829.16;5080260;28;20063;-77
2021/05/20 01:08:56;;;;;;;1.63;0.50;;;;;;;8.29;69.07;96830.53;5083575;28;20037;-77
2021/05/20 01:11:23;;;;;;;0.52;0.50;;;;;;;8.25;69.08;96824.94;5085036;28;20033;-77
2021/05/20 01:13:49;;;;;;;0.50;0.50;;;;;;;8.25;69.21;96834.53;5087064;28;20051;-77
2021/05/20 01:16:15;;;;;;;0.85;0.43;;;;;;;8.24;69.36;96838.19;5077465;28;20055;-78
2021/05/20 01:18:42;;;;;;;0.50;0.40;;;;;;;8.22;69.23;96834.94;5089112;28;20037;-78
2021/05/20 01:21:08;;;;;;;0.40;0.40;;;;;;;8.19;69.22;96840.53;5086714;28;20052;-78
2021/05/20 01:23:34;;;;;;;0.45;0.40;;;;;;;8.13;69.05;96840.31;5081020;28;20040;-77
2021/05/20 01:26:03;;;;;;;0.50;0.50;;;;;;;8.10;69.28;96848.53;5084421;28;20059;-76
2021/05/20 01:28:31;;;;;;;0.40;0.40;;;;;;;8.06;69.23;96843.88;5083228;28;20405;-76
2021/05/20 01:30:57;;;;;;;0.75;0.50;;;;;;;8.00;69.22;96845.47;5083454;28;20035;-77
2021/05/20 01:33:23;;;;;;;0.55;0.55;;;;;;;7.96;69.27;96846.84;5085307;28;20496;-78
2021/05/20 01:35:50;;;;;;;0.57;0.57;;;;;;;7.92;69.31;96851.66;5082897;28;20043;-77
2021/05/20 01:40:50;;;;;;;0.52;0.52;;;;;;;7.87;69.78;96843.59;5084520;28;20032;-79
2021/05/20 01:43:17;;;;;;;0.60;0.60;;;;;;;7.85;69.61;96842.16;5085487;28;20036;-78
2021/05/20 01:45:49;;;;;;;0.98;0.50;;;;;;;7.84;69.73;96848.38;5082576;28;20496;-77
2021/05/20 01:48:15;;;;;;;0.60;0.60;;;;;;;7.84;69.92;96849.19;5083329;28;20044;-78
2021/05/20 01:50:41;;;;;;;1.15;0.68;;;;;;;7.85;69.97;96842.16;5086295;28;20043;-77
2021/05/20 01:53:09;;;;;;;1.38;0.47;;;;;;;7.82;70.03;96851.19;5083445;28;20032;-77
2021/05/20 01:55:35;;;;;;;1.10;0.40;;;;;;;7.82;69.98;96859.00;5082834;28;20106;-79
2021/05/20 01:58:01;;;;;;;0.43;0.40;;;;;;;7.83;70.05;96858.03;5079041;28;20029;-80
2021/05/20 02:00:27;;;;;;;0.57;0.40;;;;;;;7.84;70.02;96856.22;5085659;28;20032;-79
2021/05/20 02:02:53;;;;;;;0.60;0.60;;;;;;;7.84;70.04;96857.00;5082799;28;20032;-77
2021/05/20 02:05:20;;;;;;;0.50;0.50;;;;;;;7.81;70.09;96852.19;5083395;28;20503;-77
2021/05/20 02:07:47;;;;;;;0.38;0.38;;;;;;;7.81;70.20;96853.97;5081208;28;20036;-77
2021/05/20 02:10:13;;;;;;;0.45;0.45;;;;;;;7.79;70.20;96856.78;5085396;28;20499;-77
2021/05/20 02:12:39;;;;;;;1.67;0.45;;;;;;;7.79;70.26;96861.19;5086310;28;20036;-77
2021/05/20 02:15:06;;;;;;;0.40;0.40;;;;;;;7.73;70.12;96860.94;5080447;28;20055;-76
2021/05/20 02:17:33;;;;;;;1.08;0.50;;;;;;;7.68;70.23;96865.91;5082265;28;20393;-76
2021/05/20 02:19:59;;;;;;;0.57;0.57;;;;;;;7.66;70.29;96870.53;5082741;28;20044;-77
2021/05/20 02:22:26;;;;;;;0.47;0.47;;;;;;;7.64;70.53;96863.88;5085065;28;20049;-78
2021/05/20 02:24:52;;;;;;;0.60;0.60;;;;;;;7.63;70.54;96859.66;5085769;28;20045;-77
2021/05/20 02:27:18;;;;;;;0.70;0.50;;;;;;;7.61;70.70;96866.88;5077436;28;20032;-78
2021/05/20 02:29:44;;;;;;;0.38;0.38;;;;;;;7.57;70.66;96855.19;5077599;28;20051;-77
2021/05/20 02:32:10;;;;;;;0.30;0.30;;;;;;;7.46;70.92;96867.75;5084412;28;20033;-78
2021/05/20 02:34:36;;;;;;;0.30;0.30;;;;;;;7.41;71.03;96862.31;5083496;28;20484;-77
2021/05/20 02:37:03;;;;;;;1.30;0.50;;;;;;;7.33;71.10;96865.03;5078480;28;20079;-77
2021/05/20 02:39:29;;;;;;;0.40;0.40;;;;;;;7.31;71.29;96862.63;5082916;28;20447;-78
2021/05/20 02:41:55;;;;;;;0.50;0.50;;;;;;;7.34;71.76;96856.22;5083071;28;20052;-76
2021/05/20 02:44:21;;;;;;;0.43;0.43;;;;;;;7.35;71.76;96857.00;5084883;28;20040;-77
2021/05/20 02:46:47;;;;;;;0.85;0.60;;;;;;;7.36;71.85;96856.03;5083398;28;20036;-77
2021/05/20 02:49:13;;;;;;;0.80;0.60;;;;;;;7.41;71.93;96857.09;5084979;28;20035;-77
2021/05/20 02:51:40;;;;;;;0.35;0.35;;;;;;;7.40;71.96;96865.09;5089650;28;20401;-76
2021/05/20 02:54:06;;;;;;;0.50;0.50;;;;;;;7.38;72.29;96859.25;5081735;28;20048;-77
2021/05/20 02:56:32;;;;;;;0.57;0.50;;;;;;;7.37;72.52;96861.06;5080421;28;20036;-76
2021/05/20 02:58:58;;;;;;;0.60;0.50;;;;;;;7.41;72.64;96866.69;5082761;28;20052;-78
2021/05/20 03:01:24;;;;;;;0.70;0.35;;;;;;;7.44;72.61;96868.94;5087338;28;20048;-78
2021/05/20 03:03:51;;;;;;;0.82;0.47;;;;;;;7.48;72.89;96876.22;5079084;28;20024;-77
2021/05/20 03:06:17;;;;;;;0.50;0.50;;;;;;;7.50;73.09;96874.22;5078995;28;20480;-76
2021/05/20 03:08:43;;;;;;;0.47;0.47;;;;;;;7.53;73.35;96871.22;5085492;28;20028;-75
2021/05/20 03:11:09;;;;;;;0.50;0.50;;;;;;;7.60;73.35;96875.69;5082894;28;20049;-77
2021/05/20 03:13:35;;;;;;;0.40;0.40;;;;;;;7.64;73.52;96885.59;5084502;28;20058;-77
2021/05/20 03:16:02;;;;;;;0.52;0.47;;;;;;;7.67;74.07;96874.75;5078493;28;20373;-77
2021/05/20 03:18:28;;;;;;;0.57;0.57;;;;;;;7.69;73.87;96875.38;5086862;28;20032;-76
2021/05/20 03:20:54;;;;;;;0.43;0.43;;;;;;;7.75;73.97;96879.03;5087844;28;20480;-77
2021/05/20 03:23:20;;;;;;;0.63;0.63;;;;;;;7.77;73.81;96878.84;5088931;28;20041;-77
2021/05/20 03:25:47;;;;;;;0.40;0.40;;;;;;;7.78;74.05;96883.88;5082476;28;20044;-77
2021/05/20 03:28:13;;;;;;;0.57;0.57;;;;;;;7.76;73.99;96874.63;5084805;28;20052;-77
2021/05/20 03:30:40;;;;;;;0.40;0.40;;;;;;;7.77;74.18;96876.22;5080315;28;20043;-77
2021/05/20 03:33:06;;;;;;;0.40;0.40;;;;;;;7.79;74.38;96876.84;5081043;28;20032;-77
2021/05/20 03:35:32;;;;;;;0.47;0.47;;;;;;;7.80;74.62;96871.44;5088226;28;20059;-77
2021/05/20 03:37:58;;;;;;;0.70;0.50;;;;;;;7.79;74.39;96877.69;5090543;28;20511;-76
2021/05/20 03:40:25;;;;;;;0.40;0.40;;;;;;;7.75;74.75;96871.22;5081635;28;20036;-77
2021/05/20 03:42:54;;;;;;;0.80;0.60;;;;;;;7.77;75.13;96871.00;5089256;28;20047;-77
2021/05/20 03:45:20;;;;;;;0.38;0.38;;;;;;;7.81;75.11;96875.69;5091631;28;20040;-77
2021/05/20 03:47:46;;;;;;;0.40;0.40;;;;;;;7.84;75.05;96877.09;5087193;28;20063;-77
2021/05/20 03:50:13;;;;;;;0.80;0.43;;;;;;;7.81;75.07;96886.13;5083153;28;20396;-77
2021/05/20 03:52:39;;;;;;;0.50;0.50;;;;;;;7.81;75.50;96880.06;5083821;28;20043;-76
2021/05/20 03:55:05;;;;;;;0.60;0.60;;;;;;;7.78;75.49;96878.66;5087105;28;20465;-77
2021/05/20 03:57:32;;;;;;;0.90;0.57;;;;;;;7.76;75.32;96890.28;5087479;28;20036;-76
2021/05/20 03:59:58;;;;;;;0.40;0.40;;;;;;;7.73;75.64;96896.72;5084832;28;20040;-76
2021/05/20 04:02:24;;;;;;;0.30;0.30;;;;;;;7.69;76.10;96892.84;5079252;28;20045;-77
2021/05/20 04:04:50;;;;;;;0.40;0.40;;;;;;;7.72;76.04;96895.06;5086330;28;20040;-77
2021/05/20 04:07:16;;;;;;;0.50;0.50;;;;;;;7.71;76.22;96894.28;5090520;28;20382;-76
2021/05/20 04:09:42;;;;;;;0.95;0.60;;;;;;;7.76;76.30;96900.72;5086871;28;20037;-77
2021/05/20 04:12:09;;;;;;;0.52;0.38;;;;;;;7.81;76.54;96901.78;5084559;28;20048;-75
2021/05/20 04:14:35;;;;;;;0.50;0.50;;;;;;;7.85;76.61;96913.47;5086379;28;20483;-75
2021/05/20 04:17:01;;;;;;;0.47;0.47;;;;;;;7.90;76.71;96907.69;5081234;28;20036;-76
2021/05/20 04:19:27;;;;;;;2.65;0.60;;;;;;;7.91;76.62;96906.66;5085478;28;20495;-75
2021/05/20 04:21:54;;;;;;;0.40;0.40;;;;;;;7.90;76.63;96905.06;5084934;28;20063;-75
2021/05/20 04:24:21;;;;;;;0.93;0.50;;;;;;;7.89;76.75;96899.00;5082958;28;20052;-76
2021/05/20 04:26:47;;;;;;;0.30;0.30;;;;;;;7.92;76.63;96898.66;5089759;28;20041;-75
2021/05/20 04:29:14;;;;;;;0.57;0.57;;;;;;;7.99;76.98;96897.91;5089867;28;20028;-75
2021/05/20 04:31:40;;;;;;;0.85;0.82;;;;;;;8.13;77.01;96899.59;5083619;28;20032;-75
2021/05/20 04:34:06;;;;;;;0.60;0.60;;;;;;;8.23;76.81;96902.69;5084042;28;20056;-76
2021/05/20 04:36:32;;;;;;;0.57;0.57;;;;;;;8.42;76.85;96903.00;5084634;28;20052;-75
2021/05/20 04:38:58;;;;;;;0.50;0.50;;;;;;;8.64;76.77;96906.34;5085063;28;20041;-75
2021/05/20 04:41:25;;;;;;;0.52;0.50;;;;;;;8.64;76.32;96904.53;5091699;28;20040;-76
2021/05/20 04:43:51;;;;;;;0.40;0.40;;;;;;;8.71;76.11;96909.81;5079205;28;20040;-75
2021/05/20 04:46:17;;;;;;;0.60;0.60;;;;;;;8.88;76.49;96912.88;5082231;28;20048;-75
2021/05/20 04:48:43;;;;;;;0.55;0.55;;;;;;;8.95;75.93;96913.72;5091546;28;20404;-76
2021/05/20 04:51:10;;;;;;;1.27;0.40;;;;;;;8.99;75.81;96912.34;5084464;28;20400;-76
2021/05/20 04:53:36;;;;;;;0.60;0.57;;;;;;;8.99;75.56;96911.50;5080711;28;20043;-75
2021/05/20 04:56:03;;;;;;;1.05;0.70;;;;;;;8.96;75.56;96920.56;5086066;28;20037;-76
2021/05/20 04:58:29;;;;;;;1.55;0.90;;;;;;;9.03;75.73;96926.66;5088587;28;20039;-76
2021/05/20 05:00:55;;;;;;;0.60;0.60;;;;;;;9.13;75.67;96929.69;5087430;28;20044;-77
2021/05/20 05:03:21;;;;;;;0.50;0.50;;;;;;;9.20;75.72;96929.72;5084517;28;20039;-76
2021/05/20 05:05:48;;;;;;;0.50;0.50;;;;;;;9.43;75.87;96939.84;5084211;28;20044;-75
2021/05/20 05:08:14;;;;;;;0.63;0.63;;;;;;;9.71;75.57;96931.03;5083273;28;20059;-74
2021/05/20 05:10:40;;;;;;;0.73;0.57;;;;;;;9.94;75.12;96931.44;5082176;28;20056;-75
2021/05/20 05:13:06;;;;;;;0.40;0.40;;;;;;;10.10;74.56;96932.03;5085334;28;20396;-74
2021/05/20 05:15:34;;;;;;;0.47;0.47;;;;;;;10.22;74.22;96932.22;5087223;28;20047;-75
2021/05/20 05:18:00;;;;;;;0.47;0.47;;;;;;;10.41;74.07;96939.28;5084001;28;20036;-75
2021/05/20 05:20:26;;;;;;;0.30;0.30;;;;;;;10.41;73.26;96935.84;5083833;28;20488;-75
2021/05/20 05:22:52;;;;;;;0.30;0.30;;;;;;;10.40;73.25;96940.31;5085048;28;20051;-76
2021/05/20 05:25:19;;;;;;;0.30;0.30;;;;;;;10.68;73.49;96937.41;5083261;28;20044;-75
2021/05/20 05:27:45;;;;;;;1.35;0.30;;;;;;;11.16;73.06;96934.41;5085206;28;20047;-76
2021/05/20 05:30:12;;;;;;;0.40;0.40;;;;;;;11.63;72.59;96933.34;5089499;28;20036;-76
2021/05/20 05:32:38;;;;;;;0.30;0.30;;;;;;;11.85;71.41;96939.88;5083029;28;20032;-76
2021/05/20 05:35:05;;;;;;;0.40;0.40;;;;;;;11.70;70.03;96942.81;5087246;28;20056;-75
2021/05/20 05:37:31;;;;;;;0.35;0.35;;;;;;;11.53;69.79;96939.09;5081673;28;20052;-76
2021/05/20 05:39:58;;;;;;;0.28;0.28;;;;;;;11.68;70.20;96942.22;5079121;28;20051;-75
2021/05/20 05:42:25;;;;;;;0.40;0.40;;;;;;;11.75;69.08;96950.84;5087119;28;20040;-75
2021/05/20 05:44:51;;;;;;;0.40;0.40;;;;;;;11.62;68.93;96947.50;5084687;28;20044;-75
2021/05/20 05:47:17;;;;;;;0.20;0.20;;;;;;;11.23;68.35;96958.00;5085093;28;20047;-76
2021/05/20 05:49:46;;;;;;;0.30;0.30;;;;;;;10.98;68.83;96957.91;5081683;28;20385;-76
2021/05/20 05:52:19;;;;;;;0.20;0.20;;;;;;;10.83;68.84;96958.16;5088075;28;20040;-75
2021/05/20 05:54:45;;;;;;;0.47;0.30;;;;;;;10.69;68.85;96978.38;5084929;28;20506;-75
2021/05/20 05:57:11;;;;;;;0.40;0.40;;;;;;;10.60;69.17;96978.78;5081569;28;20039;-75
2021/05/20 05:59:37;;;;;;;0.22;0.22;;;;;;;10.58;69.29;96981.63;5082563;28;20040;-75
2021/05/20 06:02:04;;;;;;;0.25;0.25;;;;;;;10.57;69.39;96980.03;5087821;28;20047;-75
2021/05/20 06:04:31;;;;;;;1.55;0.30;;;;;;;10.66;69.30;96976.16;5085373;28;20044;-75
2021/05/20 06:06:58;;;;;;;0.52;0.30;;;;;;;11.08;69.85;96978.47;5085249;28;20056;-75
2021/05/20 06:09:24;;;;;;;0.40;0.40;;;;;;;11.51;68.73;96970.00;5089635;28;20039;-75
2021/05/20 06:11:50;;;;;;;0.85;0.50;;;;;;;11.79;68.34;96969.63;5084468;28;20036;-75
2021/05/20 06:14:17;;;;;;;0.40;0.40;;;;;;;12.42;68.13;96976.66;5083661;28;20051;-75
2021/05/20 06:16:43;;;;;;;1.42;0.50;;;;;;;13.04;66.82;96970.53;5080787;28;20032;-75
2021/05/20 06:19:11;;;;;;;0.60;0.60;;;;;;;13.37;65.59;96967.53;5082299;28;20037;-75
2021/05/20 06:21:39;;;;;;;0.52;0.40;;;;;;;13.63;64.49;96970.84;5083902;28;20354;-76
2021/05/20 06:24:06;;;;;;;0.63;0.40;;;;;;;14.05;64.25;96970.84;5084069;28;20048;-76
2021/05/20 06:26:32;;;;;;;1.15;0.40;;;;;;;14.11;63.07;96975.22;5082365;28;20043;-75
2021/05/20 06:28:59;;;;;;;0.25;0.20;;;;;;;14.13;62.32;96967.88;5083623;28;20400;-76
2021/05/20 06:31:25;;;;;;;0.30;0.30;;;;;;;14.18;62.02;96971.44;5078360;28;20063;-76
2021/05/20 06:33:52;;;;;;;0.93;0.40;;;;;;;13.99;60.81;96962.03;5089070;28;20040;-76
2021/05/20 06:36:19;;;;;;;1.55;0.40;;;;;;;14.07;61.04;96968.78;5083160;28;20071;-76
2021/05/20 06:38:45;;;;;;;0.47;0.20;;;;;;;14.07;60.20;96959.06;5084302;28;20382;-75
2021/05/20 06:41:11;;;;;;;0.20;0.20;;;;;;;13.79;60.01;96959.66;5082551;28;20040;-76
2021/05/20 06:43:38;;;;;;;0.47;0.40;;;;;;;13.58;59.91;96967.03;5086677;28;20043;-76
2021/05/20 06:46:09;;;;;;;0.20;0.20;;;;;;;13.47;59.54;96967.81;5079972;28;20052;-76
2021/05/20 06:48:35;;;;;;;0.25;0.25;;;;;;;13.34;60.08;96965.38;5081062;28;20473;-76
2021/05/20 06:51:03;;;;;;;0.63;0.55;;;;;;;13.15;60.11;96970.63;5083110;28;20492;-76
2021/05/20 06:53:30;;;;;;;0.50;0.30;;;;;;;13.02;60.24;96970.78;5084261;28;20050;-76
2021/05/20 06:56:00;;;;;;;0.40;0.40;;;;;;;12.65;59.88;96973.41;5081883;28;20043;-76
2021/05/20 07:01:12;;;;;;;0.30;0.30;;;;;;;12.14;61.11;96977.91;5082523;28;20045;-76
2021/05/20 07:03:39;;;;;;;0.30;0.30;;;;;;;12.35;61.48;96983.81;5088940;28;20052;-76
2021/05/20 07:06:05;;;;;;;0.40;0.40;;;;;;;12.43;61.48;96975.63;5082283;28;20051;-76
2021/05/20 07:08:32;;;;;;;0.30;0.30;;;;;;;12.44;61.22;96976.44;5083354;28;20040;-75
2021/05/20 07:10:58;;;;;;;0.30;0.30;;;;;;;12.26;61.09;96972.72;5080687;28;20059;-76
2021/05/20 07:13:24;;;;;;;0.40;0.40;;;;;;;12.03;61.09;96986.47;5084135;28;20040;-76
2021/05/20 07:15:51;;;;;;;0.45;0.20;;;;;;;11.68;61.22;96981.63;5082646;28;20033;-76
2021/05/20 07:18:17;;;;;;;0.40;0.40;;;;;;;11.49;62.00;96988.59;5081515;28;20050;-76
2021/05/20 07:20:44;;;;;;;0.73;0.40;;;;;;;11.43;62.40;96989.44;5082191;28;20047;-76
2021/05/20 07:23:15;;;;;;;0.30;0.30;;;;;;;11.54;63.32;96990.59;5080931;28;20052;-76
2021/05/20 07:25:42;;;;;;;0.38;0.30;;;;;;;11.63;62.82;96994.56;5086300;28;20036;-76
2021/05/20 07:28:10;;;;;;;0.30;0.30;;;;;;;11.75;62.60;96981.56;5077960;28;20032;-76
2021/05/20 07:30:36;;;;;;;0.20;0.20;;;;;;;11.83;62.57;96985.78;5077086;28;20070;-76
2021/05/20 07:33:03;;;;;;;0.63;0.30;;;;;;;11.95;62.42;97005.16;5082114;28;20045;-76
2021/05/20 07:35:30;;;;;;;0.40;0.20;;;;;;;12.04;62.17;96998.59;5084823;28;20052;-76
2021/05/20 07:37:57;;;;;;;0.20;0.20;;;;;;;12.12;62.12;96998.34;5082293;28;20103;-77
2021/05/20 07:40:23;;;;;;;0.50;0.50;;;;;;;12.19;61.80;96988.56;5081620;28;20048;-76
2021/05/20 07:42:49;;;;;;;0.43;0.10;;;;;;;12.26;61.43;96993.75;5085302;28;20377;-76
2021/05/20 07:45:17;;;;;;;0.30;0.30;;;;;;;12.35;61.34;96991.69;5076876;28;20048;-76
2021/05/20 07:47:44;;;;;;;0.20;0.20;;;;;;;12.41;61.10;96992.63;5082762;28;20506;-76
2021/05/20 07:50:11;;;;;;;0.20;0.20;;;;;;;12.41;60.98;97001.34;5082025;28;20037;-76
2021/05/20 07:52:38;;;;;;;0.10;0.10;;;;;;;12.42;60.53;96983.75;5081760;28;20020;-76
2021/05/20 07:55:06;;;;;;;0.10;0.10;;;;;;;12.49;60.25;96989.72;5084231;28;20043;-76
2021/05/20 07:57:33;;;;;;;0.10;0.10;;;;;;;12.65;60.25;96985.75;5073418;28;20039;-76
2021/05/20 07:59:59;;;;;;;0.20;0.20;;;;;;;12.85;60.00;96978.47;5085521;28;20032;-76
2021/05/20 08:04:58;;;;;;;0.20;0.20;;;;;;;13.23;58.96;96977.44;5079087;28;20052;-76
2021/05/20 08:12:38;;;;;;;0.20;0.20;;;;;;;13.21;57.72;96971.56;5072882;28;20037;-75
2021/05/20 08:15:05;;;;;;;0.52;0.20;;;;;;;13.25;57.75;96969.28;5085319;28;20055;-76
2021/05/20 08:17:32;;;;;;;0.30;0.20;;;;;;;13.27;57.52;96964.59;5078053;28;20032;-75
2021/05/20 08:19:58;;;;;;;0.25;0.20;;;;;;;13.57;58.38;96972.56;5084385;28;20276;-75
2021/05/20 08:22:24;;;;;;;0.30;0.30;;;;;;;13.72;57.33;96962.41;5088222;28;20047;-75
2021/05/20 08:24:53;;;;;;;0.28;0.28;;;;;;;13.65;56.91;96956.44;5092064;28;20408;-76
2021/05/20 08:27:20;;;;;;;0.20;0.20;;;;;;;13.61;56.64;96947.38;5084683;28;20032;-76
2021/05/20 08:29:46;;;;;;;0.30;0.30;;;;;;;13.57;56.72;96946.22;5083719;28;20052;-76
2021/05/20 08:32:13;;;;;;;0.30;0.20;;;;;;;13.57;56.53;96952.28;5089219;28;20063;-75
2021/05/20 08:34:40;;;;;;;0.20;0.20;;;;;;;13.65;56.52;96955.63;5088425;28;20068;-76
2021/05/20 08:37:06;;;;;;;0.38;0.30;;;;;;;13.75;56.32;96955.88;5091847;28;20048;-76
2021/05/20 08:39:32;;;;;;;0.38;0.38;;;;;;;13.87;55.99;96948.00;5083994;28;20396;-75
2021/05/20 08:41:59;;;;;;;0.30;0.25;;;;;;;13.92;55.82;96943.66;5086046;28;20473;-76
2021/05/20 08:44:28;;;;;;;0.30;0.30;;;;;;;13.85;55.34;96936.88;5086304;28;20044;-76
2021/05/20 08:46:57;;;;;;;0.20;0.20;;;;;;;13.99;55.49;96941.72;5084448;28;20039;-75
2021/05/20 08:49:25;;;;;;;0.30;0.30;;;;;;;14.60;55.26;96936.28;5085399;28;20043;-75
2021/05/20 08:51:52;;;;;;;0.20;0.20;;;;;;;15.33;54.12;96923.44;5079732;28;20411;-76
2021/05/20 08:54:21;;;;;;;0.20;0.20;;;;;;;15.56;52.80;96907.50;5085029;28;20495;-76
2021/05/20 08:56:51;;;;;;;0.17;0.17;;;;;;;15.27;51.63;96888.22;5095207;28;20024;-76
2021/05/20 08:59:19;;;;;;;0.77;0.28;;;;;;;14.98;52.20;96900.59;5048839;28;20059;-76
2021/05/20 09:01:46;;;;;;;0.20;0.20;;;;;;;14.93;52.49;96903.13;5083394;28;20056;-76
2021/05/20 09:04:12;;;;;;;0.30;0.30;;;;;;;14.84;52.34;96907.97;5084753;28;20041;-76
2021/05/20 09:06:59;;;;;;;0.10;0.10;;;;;;;14.51;51.95;96908.56;5086355;28;20044;-76
2021/05/20 09:09:34;;;;;;;0.30;0.30;;;;;;;14.25;52.41;96908.03;5083459;28;20044;-76
2021/05/20 09:12:00;;;;;;;0.30;0.30;;;;;;;14.13;53.21;96923.03;5083104;28;20044;-76
2021/05/20 09:14:41;;;;;;;0.20;0.20;;;;;;;14.08;52.68;96926.38;5083709;28;20477;-76
2021/05/20 09:17:11;;;;;;;0.73;0.70;;;;;;;14.07;53.08;96927.41;5075807;28;20052;-76
2021/05/20 09:19:43;;;;;;;0.10;0.10;;;;;;;14.02;53.11;96922.00;5085105;28;20389;-76
2021/05/20 09:22:12;;;;;;;0.63;0.63;;;;;;;13.98;52.85;96920.84;5088184;28;20056;-76
2021/05/20 09:24:58;;;;;;;0.30;0.20;;;;;;;14.00;51.80;96916.16;5084243;28;20055;-76
2021/05/20 09:27:41;;;;;;;1.35;0.30;;;;;;;14.08;51.86;96907.09;5083110;28;20477;-76
2021/05/20 09:30:20;;;;;;;0.25;0.25;;;;;;;14.19;52.25;96919.47;5081637;28;20036;-76
2021/05/20 09:32:52;;;;;;;0.50;0.35;;;;;;;14.37;52.46;96916.72;5085314;28;20024;-75
2021/05/20 09:35:42;;;;;;;0.20;0.20;;;;;;;14.64;51.07;96907.56;5085237;28;20394;-76
2021/05/20 09:38:22;;;;;;;1.17;0.30;;;;;;;14.81;50.15;96897.91;5075088;28;20500;-76
2021/05/20 09:40:56;;;;;;;0.20;0.20;;;;;;;15.05;51.22;96909.19;5088601;28;20044;-76
2021/05/20 09:43:38;;;;;;;0.30;0.30;;;;;;;15.12;47.71;96891.38;5085430;28;20032;-76
2021/05/20 09:46:14;;;;;;;0.30;0.30;;;;;;;15.21;48.73;96897.88;5087558;28;20040;-76
2021/05/20 09:48:49;;;;;;;0.20;0.20;;;;;;;15.31;49.99;96902.56;5084031;28;20051;-76
2021/05/20 09:51:25;;;;;;;0.30;0.30;;;;;;;15.36;46.83;96875.41;5081415;28;20047;-76
2021/05/20 09:53:53;;;;;;;0.20;0.20;;;;;;;15.26;49.18;96902.44;5078413;28;20041;-76
2021/05/20 09:56:31;;;;;;;0.30;0.30;;;;;;;15.16;47.45;96889.03;5093903;28;20036;-76
2021/05/20 09:58:58;;;;;;;0.25;0.20;;;;;;;15.14;49.01;96894.56;5081900;28;20028;-76
2021/05/20 10:01:24;;;;;;;0.10;0.10;;;;;;;15.20;49.19;96887.53;5089027;28;20043;-76
2021/05/20 10:03:55;;;;;;;0.30;0.30;;;;;;;15.29;48.63;96886.13;5079246;28;20048;-75
2021/05/20 10:06:43;;;;;;;0.35;0.35;;;;;;;15.30;46.60;96865.78;5080420;28;20040;-76
2021/05/20 10:09:12;;;;;;;0.10;0.10;;;;;;;15.32;48.33;96884.84;5074837;28;20036;-76
2021/05/20 10:11:40;;;;;;;0.30;0.30;;;;;;;15.35;48.17;96873.78;5084466;28;20044;-75
2021/05/20 10:14:06;;;;;;;0.20;0.20;;;;;;;15.45;48.16;96873.19;5085705;28;20051;-75
2021/05/20 10:16:34;;;;;;;1.00;0.20;;;;;;;15.70;47.91;96881.53;5085695;28;20040;-75
2021/05/20 10:19:01;;;;;;;0.20;0.20;;;;;;;16.00;46.83;96875.13;5080480;28;20044;-76
2021/05/20 10:21:29;;;;;;;0.47;0.10;;;;;;;16.02;46.02;96910.91;5086181;28;20040;-76
2021/05/20 10:23:57;;;;;;;0.20;0.20;;;;;;;16.46;45.98;96912.84;5086962;28;20036;-76
2021/05/20 10:26:23;;;;;;;0.20;0.20;;;;;;;16.61;44.90;96909.63;5083291;28;20036;-76
2021/05/20 10:28:50;;;;;;;0.20;0.20;;;;;;;16.94;44.38;96916.69;5078888;28;20044;-76
2021/05/20 10:31:17;;;;;;;0.20;0.20;;;;;;;17.02;43.49;96897.69;5079871;28;20044;-76
2021/05/20 10:33:43;;;;;;;0.15;0.15;;;;;;;17.03;43.63;96906.47;5088927;28;20040;-76
2021/05/20 10:36:29;;;;;;;0.10;0.10;;;;;;;16.88;40.57;96883.22;5084593;28;20155;-76
2021/05/20 10:38:56;;;;;;;0.15;0.15;;;;;;;16.77;43.08;96903.47;5079487;28;20052;-76
2021/05/20 10:41:26;;;;;;;0.35;0.13;;;;;;;16.64;42.79;96895.91;5082278;28;20496;-76
2021/05/20 10:44:04;;;;;;;0.15;0.10;;;;;;;16.43;42.18;96895.63;5087197;28;20032;-76
2021/05/20 10:46:30;;;;;;;0.10;0.10;;;;;;;16.33;42.97;96900.75;5085223;28;20047;-76
2021/05/20 10:49:00;;;;;;;0.20;0.20;;;;;;;16.23;43.26;96903.25;5076244;28;20036;-76
2021/05/20 10:51:32;;;;;;;0.22;0.20;;;;;;;16.02;43.30;96896.88;5092446;28;20036;-76
2021/05/20 10:54:04;;;;;;;0.10;0.10;;;;;;;15.88;43.96;96900.91;5080657;28;20053;-76
2021/05/20 10:56:34;;;;;;;0.20;0.20;;;;;;;15.86;44.37;96905.63;5088662;28;20071;-75
2021/05/20 10:59:02;;;;;;;0.20;0.20;;;;;;;16.06;45.00;96899.84;5084509;28;20059;-76
2021/05/20 11:01:31;;;;;;;0.20;0.20;;;;;;;16.15;45.01;96901.06;5092542;28;20036;-76
2021/05/20 11:03:59;;;;;;;0.13;0.13;;;;;;;16.22;44.38;96891.09;5080055;28;20036;-76
2021/05/20 11:06:51;;;;;;;0.20;0.20;;;;;;;16.14;43.53;96876.41;5080535;28;20044;-76
2021/05/20 11:09:17;;;;;;;0.10;0.10;;;;;;;15.97;44.11;96883.56;5073299;28;20048;-76
2021/05/20 11:11:44;;;;;;;0.20;0.20;;;;;;;15.85;44.28;96883.66;5086345;28;20473;-76
2021/05/20 11:14:13;;;;;;;0.08;0.08;;;;;;;15.91;44.00;96874.75;5085122;28;20036;-76
2021/05/20 11:16:42;;;;;;;0.10;0.10;;;;;;;16.05;44.25;96871.78;5073265;28;20031;-76
2021/05/20 11:19:23;;;;;;;0.22;0.20;;;;;;;16.22;43.39;96859.34;5087334;28;20040;-76
2021/05/20 11:21:59;;;;;;;0.30;0.10;;;;;;;16.38;42.33;96850.56;5072907;28;20045;-76
2021/05/20 11:24:30;;;;;;;0.20;0.20;;;;;;;16.75;43.54;96851.78;5085553;28;20040;-76
2021/05/20 11:27:05;;;;;;;0.32;0.20;;;;;;;17.33;41.67;96844.22;5080282;28;20043;-76
2021/05/20 11:29:33;;;;;;;0.10;0.10;;;;;;;17.75;41.28;96838.22;5080779;28;20039;-76
2021/05/20 11:32:11;;;;;;;0.73;0.20;;;;;;;18.08;41.51;96833.69;5084795;28;20040;-76
2021/05/20 11:37:42;;;;;;;0.10;0.10;;;;;;;17.80;37.63;96825.78;5075739;28;20497;-76
2021/05/20 11:40:33;;;;;;;1.30;0.10;;;;;;;17.94;37.98;96868.63;5077356;28;20040;-76
2021/05/20 11:43:00;;;;;;;0.00;0.00;;;;;;;17.82;39.38;96889.19;5073204;28;20496;-76
2021/05/20 11:45:31;;;;;;;0.10;0.10;;;;;;;17.65;38.42;96891.97;5084839;28;20491;-76
2021/05/20 11:47:59;;;;;;;0.20;0.20;;;;;;;17.29;39.26;96896.16;5083153;28;20028;-76
2021/05/20 11:50:27;;;;;;;3.15;0.40;;;;;;;16.94;39.77;96903.44;5080153;28;20036;-76
2021/05/20 11:52:54;;;;;;;0.30;0.20;;;;;;;16.64;40.49;96912.56;5073460;28;20039;-75
2021/05/20 11:55:22;;;;;;;0.30;0.20;;;;;;;16.40;40.97;96913.84;5090761;28;20352;-75